createdAt,value
2022-08-12T00:00:52.187Z,959.3
2022-08-12T00:02:02.458Z,959.33
2022-08-12T00:02:52.373Z,959.36
2022-08-12T00:03:52.327Z,959.32
2022-08-12T00:04:52.317Z,959.35
2022-08-12T00:05:58.266Z,959.36
2022-08-12T00:06:52.296Z,959.35
2022-08-12T00:07:52.290Z,959.35
2022-08-12T00:08:52.278Z,959.35
2022-08-12T00:09:52.271Z,959.36
2022-08-12T00:10:52.263Z,959.37
2022-08-12T00:11:52.253Z,959.34
2022-08-12T00:12:52.244Z,959.36
2022-08-12T00:13:52.236Z,959.35
2022-08-12T00:14:52.225Z,959.36
2022-08-12T00:15:52.220Z,959.38
2022-08-12T00:16:52.206Z,959.35
2022-08-12T00:17:52.199Z,959.37
2022-08-12T00:18:52.192Z,959.35
2022-08-12T00:19:52.182Z,959.42
2022-08-12T00:20:52.171Z,959.38
2022-08-12T00:21:52.166Z,959.4
2022-08-12T00:22:52.906Z,959.37
2022-08-12T00:23:52.147Z,959.36
2022-08-12T00:24:52.135Z,959.41
2022-08-12T00:26:06.647Z,959.4
2022-08-12T00:26:52.118Z,959.4
2022-08-12T00:27:52.110Z,959.4
2022-08-12T00:28:52.102Z,959.38
2022-08-12T00:29:52.093Z,959.37
2022-08-12T00:30:52.082Z,959.4
2022-08-12T00:31:52.071Z,959.38
2022-08-12T00:32:54.403Z,959.43
2022-08-12T00:33:52.703Z,959.38
2022-08-12T00:34:52.047Z,959.4
2022-08-12T00:35:52.035Z,959.41
2022-08-12T00:36:52.028Z,959.41
2022-08-12T00:37:52.021Z,959.39
2022-08-12T00:38:52.008Z,959.39
2022-08-12T00:39:52.073Z,959.36
2022-08-12T00:40:51.994Z,959.4
2022-08-12T00:41:51.982Z,959.43
2022-08-12T00:42:51.973Z,959.37
2022-08-12T00:43:56.034Z,959.37
2022-08-12T00:44:51.959Z,959.41
2022-08-12T00:45:51.946Z,959.4
2022-08-12T00:46:51.939Z,959.41
2022-08-12T00:47:51.926Z,959.43
2022-08-12T00:48:51.920Z,959.43
2022-08-12T00:49:51.908Z,959.39
2022-08-12T00:50:51.903Z,959.39
2022-08-12T00:51:52.873Z,959.37
2022-08-12T00:52:51.921Z,959.36
2022-08-12T00:53:51.872Z,959.36
2022-08-12T00:54:51.866Z,959.37
2022-08-12T00:55:51.856Z,959.42
2022-08-12T00:56:51.852Z,959.39
2022-08-12T00:57:51.840Z,959.4
2022-08-12T00:58:51.830Z,959.38
2022-08-12T00:59:51.821Z,959.39
2022-08-12T01:00:51.881Z,959.35
2022-08-12T01:02:00.804Z,959.33
2022-08-12T01:02:51.793Z,959.34
2022-08-12T01:03:51.785Z,959.31
2022-08-12T01:04:51.775Z,959.31
2022-08-12T01:05:51.765Z,959.33
2022-08-12T01:06:53.878Z,959.35
2022-08-12T01:07:51.747Z,959.35
2022-08-12T01:08:51.738Z,959.36
2022-08-12T01:09:51.727Z,959.35
2022-08-12T01:10:51.725Z,959.38
2022-08-12T01:11:51.708Z,959.35
2022-08-12T01:12:51.702Z,959.39
2022-08-12T01:13:51.693Z,959.4
2022-08-12T01:14:51.685Z,959.38
2022-08-12T01:15:51.679Z,959.37
2022-08-12T01:16:51.665Z,959.4
2022-08-12T01:17:51.654Z,959.38
2022-08-12T01:18:51.651Z,959.4
2022-08-12T01:19:51.644Z,959.39
2022-08-12T01:20:51.628Z,959.4
2022-08-12T01:21:51.619Z,959.4
2022-08-12T01:22:51.892Z,959.43
2022-08-12T01:23:51.885Z,959.42
2022-08-12T01:24:51.874Z,959.38
2022-08-12T01:25:55.827Z,959.4
2022-08-12T01:26:51.859Z,959.36
2022-08-12T01:27:51.847Z,959.37
2022-08-12T01:28:51.839Z,959.35
2022-08-12T01:29:51.832Z,959.33
2022-08-12T01:30:51.819Z,959.33
2022-08-12T01:31:51.821Z,959.35
2022-08-12T01:32:51.803Z,959.31
2022-08-12T01:33:51.793Z,959.31
2022-08-12T01:34:51.783Z,959.31
2022-08-12T01:35:58.143Z,959.28
2022-08-12T01:36:51.765Z,959.3
2022-08-12T01:37:51.758Z,959.29
2022-08-12T01:38:51.746Z,959.28
2022-08-12T01:40:31.882Z,959.33
2022-08-12T01:40:52.590Z,959.27
2022-08-12T01:41:53.681Z,959.28
2022-08-12T01:42:52.546Z,959.25
2022-08-12T01:43:52.536Z,959.26
2022-08-12T01:44:52.525Z,959.24
2022-08-12T01:45:57.107Z,959.23
2022-08-12T01:46:52.509Z,959.24
2022-08-12T01:47:52.498Z,959.21
2022-08-12T01:48:52.489Z,959.19
2022-08-12T01:49:52.481Z,959.19
2022-08-12T01:50:52.469Z,959.13
2022-08-12T01:52:16.147Z,959.15
2022-08-12T01:53:05.720Z,959.12
2022-08-12T01:54:05.709Z,959.11
2022-08-12T01:55:05.703Z,959.14
2022-08-12T01:56:05.687Z,959.15
2022-08-12T01:57:05.676Z,959.09
2022-08-12T01:58:05.676Z,959.09
2022-08-12T01:59:05.657Z,959.04
2022-08-12T02:00:05.648Z,959.04
2022-08-12T02:01:05.687Z,959.01
2022-08-12T02:02:05.630Z,959.01
2022-08-12T02:03:05.621Z,959.01
2022-08-12T02:04:05.625Z,958.99
2022-08-12T02:05:05.602Z,958.95
2022-08-12T02:06:05.595Z,958.93
2022-08-12T02:07:05.586Z,958.93
2022-08-12T02:08:05.580Z,958.95
2022-08-12T02:09:05.564Z,958.92
2022-08-12T02:10:05.555Z,958.91
2022-08-12T02:11:05.544Z,958.92
2022-08-12T02:12:06.352Z,958.89
2022-08-12T02:13:05.527Z,958.91
2022-08-12T02:14:05.515Z,958.91
2022-08-12T02:15:06.255Z,958.88
2022-08-12T02:16:06.252Z,958.92
2022-08-12T02:17:06.234Z,958.94
2022-08-12T02:18:06.224Z,958.96
2022-08-12T02:19:13.227Z,958.88
2022-08-12T02:20:06.204Z,958.88
2022-08-12T02:21:06.196Z,958.87
2022-08-12T02:22:06.188Z,958.9
2022-08-12T02:23:06.178Z,958.88
2022-08-12T02:24:06.167Z,958.88
2022-08-12T02:25:06.159Z,958.9
2022-08-12T02:26:06.147Z,958.87
2022-08-12T02:27:06.140Z,958.9
2022-08-12T02:28:08.179Z,958.89
2022-08-12T02:29:06.119Z,958.84
2022-08-12T02:30:06.113Z,958.88
2022-08-12T02:31:06.102Z,958.88
2022-08-12T02:32:06.097Z,958.86
2022-08-12T02:33:06.083Z,958.85
2022-08-12T02:34:06.073Z,958.84
2022-08-12T02:35:06.062Z,958.87
2022-08-12T02:36:06.055Z,958.82
2022-08-12T02:37:06.043Z,958.79
2022-08-12T02:38:06.031Z,958.82
2022-08-12T02:39:06.024Z,958.8
2022-08-12T02:40:06.014Z,958.78
2022-08-12T02:41:06.004Z,958.78
2022-08-12T02:42:05.993Z,958.79
2022-08-12T02:43:05.984Z,958.79
2022-08-12T02:44:05.974Z,958.79
2022-08-12T02:45:05.971Z,958.77
2022-08-12T02:46:08.231Z,958.74
2022-08-12T02:47:05.948Z,958.75
2022-08-12T02:48:07.691Z,958.72
2022-08-12T02:49:07.699Z,958.7
2022-08-12T02:50:07.677Z,958.71
2022-08-12T02:51:07.665Z,958.7
2022-08-12T02:52:07.653Z,958.67
2022-08-12T02:53:07.649Z,958.71
2022-08-12T02:54:07.639Z,958.68
2022-08-12T02:55:07.628Z,958.67
2022-08-12T02:56:07.616Z,958.66
2022-08-12T02:57:07.859Z,958.64
2022-08-12T02:58:09.170Z,958.65
2022-08-12T02:59:08.084Z,958.61
2022-08-12T03:00:08.071Z,958.64
2022-08-12T03:01:08.096Z,958.62
2022-08-12T03:02:08.053Z,958.66
2022-08-12T03:03:08.045Z,958.63
2022-08-12T03:04:20.186Z,958.64
2022-08-12T03:05:08.028Z,958.63
2022-08-12T03:06:08.019Z,958.6
2022-08-12T03:07:08.004Z,958.63
2022-08-12T03:08:07.996Z,958.62
2022-08-12T03:09:09.342Z,958.62
2022-08-12T03:10:09.529Z,958.63
2022-08-12T03:11:09.555Z,958.57
2022-08-12T03:12:07.959Z,958.62
2022-08-12T03:13:07.947Z,958.61
2022-08-12T03:14:07.938Z,958.61
2022-08-12T03:15:07.928Z,958.63
2022-08-12T03:16:07.919Z,958.59
2022-08-12T03:17:07.909Z,958.63
2022-08-12T03:18:24.767Z,958.59
2022-08-12T03:19:07.887Z,958.62
2022-08-12T03:20:08.926Z,958.62
2022-08-12T03:21:07.870Z,958.62
2022-08-12T03:22:08.690Z,958.61
2022-08-12T03:23:07.852Z,958.6
2022-08-12T03:24:07.840Z,958.59
2022-08-12T03:25:07.830Z,958.6
2022-08-12T03:26:07.819Z,958.63
2022-08-12T03:27:07.811Z,958.6
2022-08-12T03:28:07.803Z,958.59
2022-08-12T03:29:07.794Z,958.61
2022-08-12T03:30:07.783Z,958.58
2022-08-12T03:31:07.772Z,958.59
2022-08-12T03:32:07.762Z,958.6
2022-08-12T03:49:41.150Z,958.58
2022-08-12T03:50:41.136Z,958.63
2022-08-12T03:51:41.123Z,958.57
2022-08-12T03:52:41.293Z,958.62
2022-08-12T03:53:41.099Z,958.62
2022-08-12T03:54:42.651Z,958.66
2022-08-12T03:55:41.073Z,958.65
2022-08-12T03:56:41.061Z,958.64
2022-08-12T03:57:41.050Z,958.64
2022-08-12T03:58:41.035Z,958.63
2022-08-12T03:59:41.027Z,958.62
2022-08-12T04:00:41.085Z,958.62
2022-08-12T04:01:41.280Z,958.64
2022-08-12T04:02:41.822Z,958.61
2022-08-12T04:03:41.645Z,958.63
2022-08-12T04:04:41.633Z,958.62
2022-08-12T04:05:54.882Z,958.65
2022-08-12T04:06:41.611Z,958.62
2022-08-12T04:07:51.354Z,958.63
2022-08-12T04:08:41.589Z,958.62
2022-08-12T04:09:41.583Z,958.64
2022-08-12T04:10:41.568Z,958.61
2022-08-12T04:11:45.732Z,958.63
2022-08-12T04:12:41.712Z,958.64
2022-08-12T04:13:41.538Z,958.64
2022-08-12T04:14:41.525Z,958.6
2022-08-12T04:15:41.517Z,958.63
2022-08-12T04:16:41.532Z,958.65
2022-08-12T04:18:06.268Z,958.67
2022-08-12T04:18:41.485Z,958.65
2022-08-12T04:19:41.474Z,958.65
2022-08-12T04:20:41.463Z,958.62
2022-08-12T04:21:42.019Z,958.64
2022-08-12T04:22:41.636Z,958.64
2022-08-12T04:23:43.902Z,958.68
2022-08-12T04:24:41.422Z,958.72
2022-08-12T04:25:41.411Z,958.69
2022-08-12T04:26:41.401Z,958.71
2022-08-12T04:27:41.392Z,958.73
2022-08-12T04:28:41.380Z,958.69
2022-08-12T04:30:17.568Z,958.72
2022-08-12T04:30:42.477Z,958.71
2022-08-12T04:31:42.470Z,958.74
2022-08-12T04:32:44.535Z,958.75
2022-08-12T04:33:42.455Z,958.75
2022-08-12T04:34:42.439Z,958.71
2022-08-12T04:35:42.432Z,958.74
2022-08-12T04:36:42.417Z,958.72
2022-08-12T04:37:57.795Z,958.7
2022-08-12T04:38:42.398Z,958.72
2022-08-12T04:39:42.430Z,958.71
2022-08-12T04:40:42.378Z,958.75
2022-08-12T04:41:50.416Z,958.77
2022-08-12T04:42:42.361Z,958.74
2022-08-12T04:43:54.103Z,958.74
2022-08-12T04:44:42.355Z,958.74
2022-08-12T04:45:42.328Z,958.7
2022-08-12T04:46:42.319Z,958.76
2022-08-12T04:47:42.307Z,958.78
2022-08-12T04:48:42.302Z,958.75
2022-08-12T04:49:42.290Z,958.72
2022-08-12T04:50:42.281Z,958.76
2022-08-12T04:51:42.276Z,958.78
2022-08-12T04:52:42.411Z,958.74
2022-08-12T04:53:42.249Z,958.78
2022-08-12T04:54:42.244Z,958.75
2022-08-12T04:55:42.230Z,958.77
2022-08-12T04:56:42.224Z,958.79
2022-08-12T04:57:42.210Z,958.78
2022-08-12T04:58:42.202Z,958.77
2022-08-12T04:59:47.394Z,958.77
2022-08-12T05:00:42.182Z,958.76
2022-08-12T05:01:42.171Z,958.78
2022-08-12T05:02:42.283Z,958.81
2022-08-12T05:03:46.449Z,958.79
2022-08-12T05:04:42.145Z,958.8
2022-08-12T05:05:42.132Z,958.83
2022-08-12T05:06:42.125Z,958.84
2022-08-12T05:07:53.981Z,958.86
2022-08-12T05:08:42.106Z,958.89
2022-08-12T05:09:59.634Z,958.9
2022-08-12T05:10:42.089Z,958.92
2022-08-12T05:11:52.085Z,958.9
2022-08-12T05:12:42.278Z,958.91
2022-08-12T05:13:42.057Z,958.92
2022-08-12T05:14:42.048Z,958.92
2022-08-12T05:16:00.310Z,958.94
2022-08-12T05:16:42.031Z,958.98
2022-08-12T05:17:42.018Z,958.89
2022-08-12T05:18:44.520Z,958.93
2022-08-12T05:19:42.001Z,958.94
2022-08-12T05:20:41.993Z,958.9
2022-08-12T05:21:42.002Z,958.9
2022-08-12T05:22:42.158Z,958.93
2022-08-12T05:23:41.963Z,958.91
2022-08-12T05:24:41.958Z,958.92
2022-08-12T05:25:41.949Z,958.9
2022-08-12T05:26:41.937Z,958.94
2022-08-12T05:27:55.246Z,958.92
2022-08-12T05:28:41.917Z,958.93
2022-08-12T05:30:05.757Z,958.92
2022-08-12T05:30:41.902Z,958.94
2022-08-12T05:31:47.753Z,958.92
2022-08-12T05:32:42.031Z,958.95
2022-08-12T05:33:41.875Z,958.91
2022-08-12T05:34:41.890Z,958.9
2022-08-12T05:35:41.884Z,958.94
2022-08-12T05:36:41.873Z,958.92
2022-08-12T05:37:41.865Z,958.96
2022-08-12T05:38:41.857Z,958.98
2022-08-12T05:39:41.970Z,958.97
2022-08-12T05:40:41.899Z,959.01
2022-08-12T05:41:41.827Z,959.02
2022-08-12T05:42:42.143Z,959.02
2022-08-12T05:43:41.810Z,959.03
2022-08-12T05:44:41.803Z,959.06
2022-08-12T05:45:44.813Z,959.03
2022-08-12T05:46:41.784Z,958.98
2022-08-12T05:47:53.166Z,958.97
2022-08-12T05:48:41.767Z,958.97
2022-08-12T05:49:41.760Z,958.94
2022-08-12T05:50:41.747Z,958.93
2022-08-12T05:51:41.938Z,958.91
2022-08-12T05:52:42.067Z,958.89
2022-08-12T05:53:41.725Z,958.88
2022-08-12T05:54:56.886Z,958.8
2022-08-12T05:55:41.705Z,958.83
2022-08-12T05:56:41.949Z,958.82
2022-08-12T05:57:41.688Z,958.84
2022-08-12T05:58:41.681Z,958.85
2022-08-12T05:59:41.672Z,958.81
2022-08-12T06:00:41.667Z,958.83
2022-08-12T06:02:11.083Z,958.84
2022-08-12T06:02:41.889Z,958.89
2022-08-12T06:03:41.640Z,958.91
2022-08-12T06:04:41.634Z,958.91
2022-08-12T06:05:43.282Z,958.93
2022-08-12T06:06:41.614Z,958.93
2022-08-12T06:07:48.745Z,958.96
2022-08-12T06:08:41.597Z,958.95
2022-08-12T06:09:41.591Z,958.96
2022-08-12T06:10:41.579Z,959
2022-08-12T06:11:42.128Z,959.02
2022-08-12T06:12:41.754Z,959.01
2022-08-12T06:13:52.626Z,958.99
2022-08-12T06:14:41.547Z,959
2022-08-12T06:15:41.540Z,958.95
2022-08-12T06:16:41.532Z,958.96
2022-08-12T06:17:41.524Z,958.99
2022-08-12T06:18:41.515Z,958.97
2022-08-12T06:20:22.355Z,958.96
2022-08-12T06:20:43.954Z,958.97
2022-08-12T06:21:43.908Z,958.94
2022-08-12T06:22:43.895Z,958.96
2022-08-12T06:23:43.888Z,958.96
2022-08-12T06:24:43.882Z,958.98
2022-08-12T06:25:43.875Z,958.99
2022-08-12T06:26:43.867Z,958.96
2022-08-12T06:28:05.985Z,958.93
2022-08-12T06:28:43.851Z,958.9
2022-08-12T06:30:07.818Z,958.91
2022-08-12T06:30:47.033Z,958.89
2022-08-12T06:31:43.827Z,958.93
2022-08-12T06:32:47.616Z,958.93
2022-08-12T06:35:49.022Z,958.95
2022-08-12T06:36:29.790Z,958.98
2022-08-12T06:37:25.844Z,958.96
2022-08-12T06:38:25.833Z,958.93
2022-08-12T06:39:25.862Z,958.97
2022-08-12T06:40:25.872Z,958.99
2022-08-12T06:41:25.810Z,958.99
2022-08-12T06:42:31.451Z,958.94
2022-08-12T06:43:25.795Z,958.96
2022-08-12T06:44:25.791Z,958.99
2022-08-12T06:45:25.785Z,959.01
2022-08-12T06:46:25.778Z,959.01
2022-08-12T06:47:25.769Z,959.02
2022-08-12T06:48:25.765Z,959.02
2022-08-12T06:49:25.756Z,959.04
2022-08-12T06:50:25.763Z,959.01
2022-08-12T06:51:25.743Z,958.98
2022-08-12T06:52:25.739Z,959.03
2022-08-12T06:53:25.731Z,959.02
2022-08-12T06:54:30.703Z,959.04
2022-08-12T06:55:25.718Z,959.01
2022-08-12T06:56:40.161Z,959.04
2022-08-12T06:58:16.455Z,959.07
2022-08-12T06:59:16.438Z,959.07
2022-08-12T07:00:16.434Z,959.06
2022-08-12T07:01:16.496Z,959.03
2022-08-12T07:02:16.426Z,958.98
2022-08-12T07:03:22.973Z,958.95
2022-08-12T07:04:35.623Z,958.98
2022-08-12T07:05:16.418Z,958.98
2022-08-12T07:06:16.412Z,958.94
2022-08-12T07:07:16.412Z,958.93
2022-08-12T07:08:16.411Z,958.93
2022-08-12T07:09:16.426Z,958.94
2022-08-12T07:10:16.405Z,959
2022-08-12T07:11:16.407Z,959.03
2022-08-12T07:12:16.409Z,959.04
2022-08-12T07:13:16.406Z,959.04
2022-08-12T07:14:16.404Z,959.05
2022-08-12T07:15:16.408Z,959.05
2022-08-12T07:16:16.406Z,959.06
2022-08-12T07:17:16.408Z,959.08
2022-08-12T07:18:16.409Z,959.08
2022-08-12T07:19:16.602Z,959.08
2022-08-12T07:20:36.232Z,959.11
2022-08-12T07:21:16.410Z,959.11
2022-08-12T07:22:16.419Z,959.2
2022-08-12T07:23:16.413Z,959.14
2022-08-12T07:24:16.418Z,959.16
2022-08-12T07:25:16.420Z,959.1
2022-08-12T07:26:16.424Z,959.11
2022-08-12T07:27:16.423Z,959.14
2022-08-12T07:28:17.167Z,959.17
2022-08-12T07:29:16.430Z,959.05
2022-08-12T07:30:16.437Z,959.08
2022-08-12T07:31:17.162Z,959.1
2022-08-12T07:32:16.543Z,959.08
2022-08-12T07:33:16.448Z,959.03
2022-08-12T07:34:16.452Z,959.04
2022-08-12T07:35:16.454Z,959.09
2022-08-12T07:36:16.458Z,959.13
2022-08-12T07:37:16.461Z,959.23
2022-08-12T07:38:16.468Z,959.28
2022-08-12T07:39:16.499Z,959.28
2022-08-12T07:40:16.519Z,959.21
2022-08-12T07:41:16.474Z,959.14
2022-08-12T07:42:16.480Z,958.99
2022-08-12T07:43:16.482Z,958.79
2022-08-12T07:44:16.490Z,958.79
2022-08-12T07:45:16.488Z,958.75
2022-08-12T07:46:16.496Z,958.79
2022-08-12T07:47:16.495Z,958.77
2022-08-12T07:48:16.501Z,958.81
2022-08-12T07:49:16.505Z,958.78
2022-08-12T07:50:20.123Z,958.83
2022-08-12T07:51:25.109Z,958.82
2022-08-12T07:52:16.514Z,958.79
2022-08-12T07:53:16.515Z,958.78
2022-08-12T07:54:16.520Z,958.8
2022-08-12T07:55:16.520Z,958.82
2022-08-12T07:56:16.672Z,958.79
2022-08-12T07:57:16.531Z,958.78
2022-08-12T07:58:16.535Z,958.8
2022-08-12T07:59:16.532Z,958.75
2022-08-12T08:00:16.540Z,958.84
2022-08-12T08:01:16.567Z,958.86
2022-08-12T08:02:16.541Z,958.87
2022-08-12T08:03:16.542Z,958.86
2022-08-12T08:04:18.936Z,958.85
2022-08-12T08:05:16.545Z,958.83
2022-08-12T08:06:18.934Z,958.83
2022-08-12T08:07:16.546Z,958.82
2022-08-12T08:08:16.550Z,958.81
2022-08-12T08:09:16.553Z,958.81
2022-08-12T08:10:16.551Z,958.88
2022-08-12T08:11:16.553Z,958.8
2022-08-12T08:12:18.788Z,958.79
2022-08-12T08:13:16.556Z,958.81
2022-08-12T08:14:16.555Z,958.77
2022-08-12T08:15:16.574Z,958.81
2022-08-12T08:16:16.558Z,958.85
2022-08-12T08:17:16.556Z,958.88
2022-08-12T08:18:26.074Z,958.9
2022-08-12T08:19:16.558Z,958.89
2022-08-12T08:20:16.555Z,958.95
2022-08-12T08:21:16.558Z,958.88
2022-08-12T08:22:16.561Z,958.91
2022-08-12T08:23:16.559Z,958.86
2022-08-12T08:24:16.563Z,958.85
2022-08-12T08:25:20.321Z,958.89
2022-08-12T08:26:16.554Z,958.88
2022-08-12T08:27:16.557Z,958.92
2022-08-12T08:28:16.554Z,958.93
2022-08-12T08:29:16.555Z,958.9
2022-08-12T08:30:16.555Z,958.91
2022-08-12T08:31:16.556Z,958.92
2022-08-12T08:32:16.554Z,958.9
2022-08-12T08:33:24.913Z,958.87
2022-08-12T08:35:01.448Z,958.91
2022-08-12T08:36:02.128Z,958.92
2022-08-12T08:37:05.523Z,958.88
2022-08-12T08:38:01.447Z,958.91
2022-08-12T08:39:01.446Z,958.96
2022-08-12T08:40:01.447Z,958.93
2022-08-12T08:41:01.441Z,958.92
2022-08-12T08:42:13.767Z,958.96
2022-08-12T08:43:01.444Z,958.96
2022-08-12T08:44:01.556Z,958.95
2022-08-12T08:45:01.441Z,959
2022-08-12T08:46:01.438Z,959.01
2022-08-12T08:47:01.438Z,959
2022-08-12T08:48:01.434Z,959.01
2022-08-12T08:49:01.466Z,959.01
2022-08-12T08:50:01.483Z,959.03
2022-08-12T08:51:04.616Z,959.03
2022-08-12T08:52:01.427Z,959.09
2022-08-12T08:53:01.425Z,959.07
2022-08-12T08:54:01.512Z,959.06
2022-08-12T08:55:01.430Z,959.08
2022-08-12T08:56:04.860Z,959.05
2022-08-12T08:57:01.419Z,959.01
2022-08-12T08:58:01.418Z,959.03
2022-08-12T08:59:01.417Z,959.02
2022-08-12T09:00:01.412Z,959.05
2022-08-12T09:01:01.415Z,959.05
2022-08-12T09:02:01.455Z,959.01
2022-08-12T09:03:01.409Z,959.03
2022-08-12T09:05:28.226Z,959.04
2022-08-12T09:30:09.336Z,958.96
2022-08-12T09:30:46.508Z,958.97
2022-08-12T09:32:03.053Z,958.98
2022-08-12T09:34:36.441Z,958.93
2022-08-12T09:35:42.688Z,958.93
2022-08-12T09:36:48.794Z,958.89
2022-08-12T09:37:34.002Z,958.87
2022-08-12T09:38:35.262Z,958.93
2022-08-12T09:42:35.302Z,958.77
2022-08-12T09:43:30.284Z,958.75
2022-08-12T09:44:38.813Z,958.76
2022-08-12T09:46:05.888Z,958.85
2022-08-12T09:46:39.216Z,958.86
2022-08-12T09:47:39.180Z,958.78
2022-08-12T09:48:40.354Z,958.76
2022-08-12T09:49:42.438Z,958.8
2022-08-12T09:50:39.176Z,958.8
2022-08-12T09:51:43.926Z,958.75
2022-08-12T09:52:39.175Z,958.74
2022-08-12T09:53:39.687Z,958.75
2022-08-12T09:54:42.811Z,958.78
2022-08-12T09:56:57.710Z,958.75
2022-08-12T09:59:06.900Z,958.71
2022-08-12T10:00:32.043Z,958.73
2022-08-12T10:01:34.880Z,958.77
2022-08-12T10:03:04.140Z,958.73
2022-08-12T10:04:13.359Z,958.73
2022-08-12T10:05:17.642Z,958.68
2022-08-12T10:06:57.682Z,958.62
2022-08-12T10:07:55.731Z,958.63
2022-08-12T10:08:55.725Z,958.62
2022-08-12T10:09:57.669Z,958.58
2022-08-12T10:10:55.727Z,958.62
2022-08-12T10:12:10.962Z,958.55
2022-08-12T10:13:43.397Z,958.56
2022-08-12T10:14:49.751Z,958.57
2022-08-12T10:16:01.312Z,958.56
2022-08-12T10:16:43.398Z,958.57
2022-08-12T10:17:56.489Z,958.48
2022-08-12T10:18:51.471Z,958.58
2022-08-12T10:19:45.581Z,958.62
2022-08-12T10:20:43.396Z,958.56
2022-08-12T10:21:43.395Z,958.51
2022-08-12T10:22:43.395Z,958.54
2022-08-12T10:23:46.004Z,958.55
2022-08-12T10:24:43.399Z,958.57
2022-08-12T10:26:10.080Z,958.52
2022-08-12T10:26:50.605Z,958.57
2022-08-12T10:28:00.820Z,958.57
2022-08-12T10:29:02.220Z,958.54
2022-08-12T10:31:00.730Z,958.48
2022-08-12T10:32:20.297Z,958.46
2022-08-12T10:33:31.387Z,958.47
2022-08-12T10:34:29.378Z,958.43
2022-08-12T10:35:29.382Z,958.5
2022-08-12T10:36:36.069Z,958.43
2022-08-12T10:38:13.212Z,958.38
2022-08-12T10:39:00.400Z,958.36
2022-08-12T10:40:32.885Z,958.36
2022-08-12T10:41:57.636Z,958.39
2022-08-12T10:42:31.188Z,958.39
2022-08-12T10:43:52.368Z,958.36
2022-08-12T10:44:31.186Z,958.34
2022-08-12T10:45:31.183Z,958.36
2022-08-12T10:46:31.817Z,958.32
2022-08-12T10:48:01.525Z,958.27
2022-08-12T10:48:42.715Z,958.35
2022-08-12T10:52:33.546Z,958.29
2022-08-12T10:53:04.140Z,958.29
2022-08-12T10:54:04.992Z,958.32
2022-08-12T10:55:06.846Z,958.31
2022-08-12T10:56:04.991Z,958.29
2022-08-12T10:57:04.992Z,958.3
2022-08-12T10:58:36.484Z,958.33
2022-08-12T10:59:39.226Z,958.3
2022-08-12T11:04:50.430Z,958.23
2022-08-12T11:08:42.670Z,958.2
2022-08-12T11:09:42.226Z,958.2
2022-08-12T11:10:36.951Z,958.19
2022-08-12T11:12:08.545Z,958.19
2022-08-12T11:13:14.216Z,958.24
2022-08-12T11:14:48.810Z,958.14
2022-08-12T11:16:19.949Z,958.18
2022-08-12T11:17:35.215Z,958.2
2022-08-12T11:18:17.747Z,958.15
2022-08-12T11:19:13.046Z,958.14
2022-08-12T11:20:15.063Z,958.11
2022-08-12T11:21:15.882Z,958.1
2022-08-12T11:22:13.044Z,958.08
2022-08-12T11:23:24.698Z,958.16
2022-08-12T11:24:18.926Z,958.08
2022-08-12T11:25:13.043Z,958.1
2022-08-12T11:26:13.045Z,958.05
2022-08-12T11:27:13.045Z,958.1
2022-08-12T11:28:13.368Z,958.1
2022-08-12T11:29:22.276Z,958.07
2022-08-12T11:30:32.289Z,958.03
2022-08-12T11:31:40.779Z,958.03
2022-08-12T11:32:38.689Z,958.03
2022-08-12T11:34:03.970Z,957.98
2022-08-12T11:35:04.455Z,958.05
2022-08-12T11:36:10.694Z,958.03
2022-08-12T11:37:04.712Z,958.03
2022-08-12T11:38:04.427Z,958
2022-08-12T11:39:05.285Z,957.96
2022-08-12T11:40:10.151Z,957.99
2022-08-12T11:41:10.146Z,958.03
2022-08-12T11:42:10.150Z,958.02
2022-08-12T11:43:11.940Z,958.02
2022-08-12T11:44:35.798Z,957.92
2022-08-12T11:45:10.271Z,957.98
2022-08-12T11:46:10.154Z,957.94
2022-08-12T11:47:10.153Z,957.95
2022-08-12T11:48:10.156Z,957.92
2022-08-12T11:49:10.291Z,957.89
2022-08-12T11:50:11.644Z,957.97
2022-08-12T11:51:10.403Z,957.97
2022-08-12T11:52:17.403Z,957.97
2022-08-12T11:54:01.088Z,958.01
2022-08-12T11:54:58.009Z,958.01
2022-08-12T11:55:58.011Z,957.98
2022-08-12T11:56:59.107Z,957.99
2022-08-12T12:01:39.066Z,958.05
2022-08-12T12:02:20.085Z,958.04
2022-08-12T12:03:20.025Z,958.07
2022-08-12T12:04:22.659Z,958.05
2022-08-12T12:05:20.028Z,958.05
2022-08-12T12:06:20.030Z,958.08
2022-08-12T12:07:20.030Z,958.1
2022-08-12T12:08:55.566Z,958.04
2022-08-12T12:09:55.691Z,958.06
2022-08-12T12:10:55.568Z,958.03
2022-08-12T12:11:55.566Z,958
2022-08-12T12:12:55.569Z,958.02
2022-08-12T12:14:11.126Z,957.98
2022-08-12T12:15:09.453Z,957.98
2022-08-12T12:16:07.993Z,958.03
2022-08-12T12:17:09.179Z,958.03
2022-08-12T12:18:07.998Z,958.04
2022-08-12T12:19:08.000Z,958
2022-08-12T12:20:08.000Z,958.01
2022-08-12T12:21:08.300Z,957.98
2022-08-12T12:22:08.002Z,957.93
2022-08-12T12:23:08.005Z,957.96
2022-08-12T12:24:08.005Z,957.88
2022-08-12T12:25:08.956Z,957.94
2022-08-12T12:26:39.784Z,957.92
2022-08-12T12:28:04.290Z,957.94
2022-08-12T12:28:59.928Z,957.9
2022-08-12T12:30:35.396Z,957.85
2022-08-12T12:32:09.835Z,957.88
2022-08-12T12:32:35.397Z,957.87
2022-08-12T12:33:46.289Z,957.83
2022-08-12T12:34:35.400Z,957.91
2022-08-12T12:36:35.192Z,957.88
2022-08-12T12:38:04.832Z,957.91
2022-08-12T12:38:35.205Z,957.88
2022-08-12T12:39:50.189Z,957.85
2022-08-12T12:40:35.194Z,957.88
2022-08-12T12:41:48.221Z,957.85
2022-08-12T12:43:13.110Z,957.84
2022-08-12T12:44:25.620Z,957.83
2022-08-12T12:45:19.270Z,957.81
2022-08-12T12:46:14.561Z,957.82
2022-08-12T12:47:26.046Z,957.77
2022-08-12T12:48:14.567Z,957.83
2022-08-12T12:49:15.299Z,957.79
2022-08-12T12:50:26.907Z,957.77
2022-08-12T12:51:14.571Z,957.73
2022-08-12T12:52:32.859Z,957.77
2022-08-12T12:54:05.407Z,957.75
2022-08-12T12:54:32.814Z,957.76
2022-08-12T12:55:35.691Z,957.71
2022-08-12T12:56:34.350Z,957.72
2022-08-12T12:57:35.962Z,957.69
2022-08-12T12:58:33.108Z,957.7
2022-08-12T12:59:33.916Z,957.74
2022-08-12T13:00:32.823Z,957.74
2022-08-12T13:01:36.445Z,957.72
2022-08-12T13:02:32.884Z,957.67
2022-08-12T13:03:35.365Z,957.71
2022-08-12T13:04:35.044Z,957.71
2022-08-12T13:05:42.011Z,957.7
2022-08-12T13:06:32.826Z,957.71
2022-08-12T13:07:49.602Z,957.69
2022-08-12T13:08:35.618Z,957.72
2022-08-12T13:09:35.979Z,957.78
2022-08-12T13:10:36.780Z,957.79
2022-08-12T13:11:41.140Z,957.71
2022-08-12T13:12:32.831Z,957.73
2022-08-12T13:14:08.445Z,957.68
2022-08-12T13:14:44.615Z,957.67
2022-08-12T13:15:47.737Z,957.68
2022-08-12T13:16:44.644Z,957.68
2022-08-12T13:17:45.128Z,957.68
2022-08-12T13:18:44.620Z,957.67
2022-08-12T13:19:46.911Z,957.68
2022-08-12T13:20:44.621Z,957.7
2022-08-12T13:21:44.625Z,957.72
2022-08-12T13:22:44.626Z,957.71
2022-08-12T13:23:44.882Z,957.72
2022-08-12T13:24:44.631Z,957.7
2022-08-12T13:25:44.626Z,957.66
2022-08-12T13:26:44.628Z,957.68
2022-08-12T13:27:46.186Z,957.71
2022-08-12T13:28:44.633Z,957.68
2022-08-12T13:29:44.629Z,957.65
2022-08-12T13:30:48.319Z,957.59
2022-08-12T13:31:46.719Z,957.56
2022-08-12T13:32:48.055Z,957.59
2022-08-12T13:34:28.678Z,957.53
2022-08-12T13:34:53.341Z,957.54
2022-08-12T13:36:15.487Z,957.55
2022-08-12T13:37:12.257Z,957.55
2022-08-12T13:38:12.254Z,957.48
2022-08-12T13:39:12.288Z,957.43
2022-08-12T13:40:12.258Z,957.46
2022-08-12T13:41:12.261Z,957.45
2022-08-12T13:42:13.943Z,957.39
2022-08-12T13:43:13.250Z,957.41
2022-08-12T13:44:12.266Z,957.37
2022-08-12T13:45:12.269Z,957.4
2022-08-12T13:46:12.640Z,957.39
2022-08-12T13:47:18.733Z,957.36
2022-08-12T13:48:12.273Z,957.37
2022-08-12T13:49:17.554Z,957.41
2022-08-12T13:50:12.278Z,957.49
2022-08-12T13:51:12.283Z,957.44